sensor_id;sensor_type;location;lat;lon;timestamp;pressure;altitude;pressure_sealevel;temperature;humidity
65880;BME280;52661;51.364;6.054;2023-02-03T00:01:39;102166.38;;;8.17;100.00
65880;BME280;52661;51.364;6.054;2023-02-03T00:04:04;102166.03;;;8.18;100.00
65880;BME280;52661;51.364;6.054;2023-02-03T00:06:31;102162.66;;;8.21;100.00
65880;BME280;52661;51.364;6.054;2023-02-03T00:08:57;102164.91;;;8.19;100.00
65880;BME280;52661;51.364;6.054;2023-02-03T00:11:23;102150.59;;;8.19;100.00
65880;BME280;52661;51.364;6.054;2023-02-03T00:13:49;102160.31;;;8.20;100.00
65880;BME280;52661;51.364;6.054;2023-02-03T00:16:14;102154.09;;;8.19;100.00
65880;BME280;52661;51.364;6.054;2023-02-03T00:18:40;102150.41;;;8.24;100.00
65880;BME280;52661;51.364;6.054;2023-02-03T00:21:05;102155.34;;;8.22;100.00
65880;BME280;52661;51.364;6.054;2023-02-03T00:23:31;102152.63;;;8.22;100.00
65880;BME280;52661;51.364;6.054;2023-02-03T00:26:11;102144.97;;;8.24;100.00
65880;BME280;52661;51.364;6.054;2023-02-03T00:28:36;102128.41;;;8.25;100.00
65880;BME280;52661;51.364;6.054;2023-02-03T00:31:02;102134.59;;;8.26;100.00
65880;BME280;52661;51.364;6.054;2023-02-03T00:33:27;102143.66;;;8.30;100.00
65880;BME280;52661;51.364;6.054;2023-02-03T00:35:52;102130.00;;;8.26;100.00
65880;BME280;52661;51.364;6.054;2023-02-03T00:38:18;102134.75;;;8.29;100.00
65880;BME280;52661;51.364;6.054;2023-02-03T00:40:51;102142.72;;;8.26;100.00
65880;BME280;52661;51.364;6.054;2023-02-03T00:43:16;102143.50;;;8.26;100.00
65880;BME280;52661;51.364;6.054;2023-02-03T00:45:42;102148.59;;;8.28;100.00
65880;BME280;52661;51.364;6.054;2023-02-03T00:48:07;102156.06;;;8.31;100.00
65880;BME280;52661;51.364;6.054;2023-02-03T00:50:32;102154.34;;;8.26;100.00
65880;BME280;52661;51.364;6.054;2023-02-03T00:52:57;102142.41;;;8.27;100.00
65880;BME280;52661;51.364;6.054;2023-02-03T00:55:23;102148.28;;;8.29;100.00
65880;BME280;52661;51.364;6.054;2023-02-03T00:57:48;102162.13;;;8.28;100.00
65880;BME280;52661;51.364;6.054;2023-02-03T01:00:14;102168.31;;;8.28;100.00
65880;BME280;52661;51.364;6.054;2023-02-03T01:02:39;102172.47;;;8.26;100.00
65880;BME280;52661;51.364;6.054;2023-02-03T01:05:05;102177.22;;;8.29;100.00
65880;BME280;52661;51.364;6.054;2023-02-03T01:07:31;102178.03;;;8.29;100.00
65880;BME280;52661;51.364;6.054;2023-02-03T01:09:57;102182.97;;;8.27;100.00
65880;BME280;52661;51.364;6.054;2023-02-03T01:12:22;102183.75;;;8.28;100.00
65880;BME280;52661;51.364;6.054;2023-02-03T01:14:48;102174.38;;;8.25;100.00
65880;BME280;52661;51.364;6.054;2023-02-03T01:17:13;102194.91;;;8.26;100.00
65880;BME280;52661;51.364;6.054;2023-02-03T01:19:38;102201.44;;;8.25;100.00
65880;BME280;52661;51.364;6.054;2023-02-03T01:22:04;102201.31;;;8.22;100.00
65880;BME280;52661;51.364;6.054;2023-02-03T01:24:29;102211.34;;;8.21;100.00
65880;BME280;52661;51.364;6.054;2023-02-03T01:26:55;102205.28;;;8.24;100.00
65880;BME280;52661;51.364;6.054;2023-02-03T01:29:20;102196.03;;;8.25;100.00
65880;BME280;52661;51.364;6.054;2023-02-03T01:31:45;102199.19;;;8.27;100.00
65880;BME280;52661;51.364;6.054;2023-02-03T01:34:12;102216.38;;;8.31;100.00
65880;BME280;52661;51.364;6.054;2023-02-03T01:36:38;102211.13;;;8.26;100.00
65880;BME280;52661;51.364;6.054;2023-02-03T01:39:04;102192.66;;;8.28;100.00
65880;BME280;52661;51.364;6.054;2023-02-03T01:41:33;102184.88;;;8.27;100.00
65880;BME280;52661;51.364;6.054;2023-02-03T01:44:00;102183.44;;;8.29;100.00
65880;BME280;52661;51.364;6.054;2023-02-03T01:46:38;102182.19;;;8.27;100.00
65880;BME280;52661;51.364;6.054;2023-02-03T01:51:43;102180.25;;;8.27;100.00
65880;BME280;52661;51.364;6.054;2023-02-03T01:54:13;102193.31;;;8.25;100.00
65880;BME280;52661;51.364;6.054;2023-02-03T01:56:42;102197.59;;;8.26;100.00
65880;BME280;52661;51.364;6.054;2023-02-03T01:59:09;102190.28;;;8.27;100.00
65880;BME280;52661;51.364;6.054;2023-02-03T02:01:35;102190.28;;;8.27;100.00
65880;BME280;52661;51.364;6.054;2023-02-03T02:04:02;102193.94;;;8.31;100.00
65880;BME280;52661;51.364;6.054;2023-02-03T02:06:29;102185.81;;;8.31;100.00
65880;BME280;52661;51.364;6.054;2023-02-03T02:08:56;102186.63;;;8.31;100.00
65880;BME280;52661;51.364;6.054;2023-02-03T02:11:22;102174.84;;;8.27;100.00
65880;BME280;52661;51.364;6.054;2023-02-03T02:13:49;102164.03;;;8.27;100.00
65880;BME280;52661;51.364;6.054;2023-02-03T02:16:27;102155.59;;;8.29;100.00
65880;BME280;52661;51.364;6.054;2023-02-03T02:43:22;102132.38;;;8.28;100.00
65880;BME280;52661;51.364;6.054;2023-02-03T02:45:56;102143.97;;;8.28;100.00
65880;BME280;52661;51.364;6.054;2023-02-03T02:48:42;102151.31;;;8.28;100.00
65880;BME280;52661;51.364;6.054;2023-02-03T02:51:11;102149.06;;;8.30;100.00
65880;BME280;52661;51.364;6.054;2023-02-03T02:53:45;102147.16;;;8.30;100.00
65880;BME280;52661;51.364;6.054;2023-02-03T02:56:14;102153.69;;;8.29;100.00
65880;BME280;52661;51.364;6.054;2023-02-03T02:58:43;102145.25;;;8.31;100.00
65880;BME280;52661;51.364;6.054;2023-02-03T03:01:11;102132.84;;;8.30;100.00
65880;BME280;52661;51.364;6.054;2023-02-03T03:03:37;102131.72;;;8.31;100.00
65880;BME280;52661;51.364;6.054;2023-02-03T03:06:49;102131.84;;;8.34;100.00
65880;BME280;52661;51.364;6.054;2023-02-03T03:09:20;102144.88;;;8.32;100.00
65880;BME280;52661;51.364;6.054;2023-02-03T03:11:50;102140.94;;;8.30;100.00
65880;BME280;52661;51.364;6.054;2023-02-03T03:14:19;102136.78;;;8.32;100.00
65880;BME280;52661;51.364;6.054;2023-02-03T03:16:52;102146.47;;;8.33;100.00
65880;BME280;52661;51.364;6.054;2023-02-03T03:19:23;102138.25;;;8.30;100.00
65880;BME280;52661;51.364;6.054;2023-02-03T03:21:52;102146.47;;;8.33;100.00
65880;BME280;52661;51.364;6.054;2023-02-03T03:24:25;102165.09;;;8.35;100.00
65880;BME280;52661;51.364;6.054;2023-02-03T03:26:58;102155.72;;;8.32;100.00
65880;BME280;52661;51.364;6.054;2023-02-03T03:29:33;102147.81;;;8.27;100.00
65880;BME280;52661;51.364;6.054;2023-02-03T03:32:02;102150.19;;;8.29;100.00
65880;BME280;52661;51.364;6.054;2023-02-03T03:34:28;102148.06;;;8.34;100.00
65880;BME280;52661;51.364;6.054;2023-02-03T03:37:01;102133.84;;;8.37;100.00
65880;BME280;52661;51.364;6.054;2023-02-03T03:39:54;102134.97;;;8.36;100.00
65880;BME280;52661;51.364;6.054;2023-02-03T03:42:37;102146.16;;;8.35;100.00
65880;BME280;52661;51.364;6.054;2023-02-03T03:45:15;102135.66;;;8.33;100.00
65880;BME280;52661;51.364;6.054;2023-02-03T03:47:48;102125.63;;;8.34;100.00
65880;BME280;52661;51.364;6.054;2023-02-03T03:50:21;102128.66;;;8.32;100.00
65880;BME280;52661;51.364;6.054;2023-02-03T03:52:48;102128.00;;;8.35;100.00
65880;BME280;52661;51.364;6.054;2023-02-03T03:55:16;102128.34;;;8.34;100.00
65880;BME280;52661;51.364;6.054;2023-02-03T03:58:04;102118.31;;;8.34;100.00
65880;BME280;52661;51.364;6.054;2023-02-03T04:00:32;102129.13;;;8.34;100.00
65880;BME280;52661;51.364;6.054;2023-02-03T04:03:03;102114.00;;;8.33;100.00
65880;BME280;52661;51.364;6.054;2023-02-03T04:05:30;102121.34;;;8.33;100.00
65880;BME280;52661;51.364;6.054;2023-02-03T04:07:56;102128.34;;;8.34;100.00
65880;BME280;52661;51.364;6.054;2023-02-03T04:10:34;102138.47;;;8.37;100.00
65880;BME280;52661;51.364;6.054;2023-02-03T04:13:00;102137.69;;;8.36;100.00
65880;BME280;52661;51.364;6.054;2023-02-03T04:15:26;102133.53;;;8.39;100.00
65880;BME280;52661;51.364;6.054;2023-02-03T04:17:52;102140.16;;;8.42;100.00
65880;BME280;52661;51.364;6.054;2023-02-03T04:20:19;102127.75;;;8.40;100.00
65880;BME280;52661;51.364;6.054;2023-02-03T04:22:44;102128.88;;;8.39;100.00
65880;BME280;52661;51.364;6.054;2023-02-03T04:25:09;102127.66;;;8.37;100.00
65880;BME280;52661;51.364;6.054;2023-02-03T04:27:35;102137.00;;;8.39;100.00
65880;BME280;52661;51.364;6.054;2023-02-03T04:30:00;102151.00;;;8.42;100.00
65880;BME280;52661;51.364;6.054;2023-02-03T04:32:25;102144.00;;;8.40;100.00
65880;BME280;52661;51.364;6.054;2023-02-03T04:34:51;102147.16;;;8.43;100.00
65880;BME280;52661;51.364;6.054;2023-02-03T04:37:16;102149.88;;;8.43;100.00
65880;BME280;52661;51.364;6.054;2023-02-03T04:39:41;102146.38;;;8.42;100.00
65880;BME280;52661;51.364;6.054;2023-02-03T04:42:07;102137.47;;;8.42;100.00
65880;BME280;52661;51.364;6.054;2023-02-03T04:44:32;102134.41;;;8.43;100.00
65880;BME280;52661;51.364;6.054;2023-02-03T04:46:57;102136.34;;;8.43;100.00
65880;BME280;52661;51.364;6.054;2023-02-03T04:49:23;102144.47;;;8.43;100.00
65880;BME280;52661;51.364;6.054;2023-02-03T04:51:48;102137.00;;;8.39;100.00
65880;BME280;52661;51.364;6.054;2023-02-03T04:54:14;102136.56;;;8.37;100.00
65880;BME280;52661;51.364;6.054;2023-02-03T04:56:39;102134.97;;;8.36;100.00
65880;BME280;52661;51.364;6.054;2023-02-03T04:59:04;102128.00;;;8.35;100.00
65880;BME280;52661;51.364;6.054;2023-02-03T05:01:30;102129.91;;;8.35;100.00
65880;BME280;52661;51.364;6.054;2023-02-03T05:03:55;102131.84;;;8.34;100.00
65880;BME280;52661;51.364;6.054;2023-02-03T05:06:25;102138.47;;;8.37;100.00
65880;BME280;52661;51.364;6.054;2023-02-03T05:08:51;102137.69;;;8.36;100.00
65880;BME280;52661;51.364;6.054;2023-02-03T05:11:17;102128.44;;;8.37;100.00
65880;BME280;52661;51.364;6.054;2023-02-03T05:13:42;102120.00;;;8.39;100.00
65880;BME280;52661;51.364;6.054;2023-02-03T05:16:07;102114.22;;;8.40;100.00
65880;BME280;52661;51.364;6.054;2023-02-03T05:18:33;102096.41;;;8.39;100.00
65880;BME280;52661;51.364;6.054;2023-02-03T05:20:58;102106.81;;;8.37;100.00
65880;BME280;52661;51.364;6.054;2023-02-03T05:23:23;102092.94;;;8.39;100.00
65880;BME280;52661;51.364;6.054;2023-02-03T05:25:49;102093.06;;;8.43;100.00
65880;BME280;52661;51.364;6.054;2023-02-03T05:28:14;102109.94;;;8.39;100.00
65880;BME280;52661;51.364;6.054;2023-02-03T05:30:39;102115.81;;;8.42;100.00
65880;BME280;52661;51.364;6.054;2023-02-03T05:33:05;102126.63;;;8.42;100.00
65880;BME280;52661;51.364;6.054;2023-02-03T05:35:30;102126.19;;;8.39;100.00
65880;BME280;52661;51.364;6.054;2023-02-03T05:37:55;102126.19;;;8.39;100.00
65880;BME280;52661;51.364;6.054;2023-02-03T05:40:21;102133.53;;;8.39;100.00
65880;BME280;52661;51.364;6.054;2023-02-03T05:43:04;102146.69;;;8.40;100.00
65880;BME280;52661;51.364;6.054;2023-02-03T05:45:30;102154.03;;;8.40;100.00
65880;BME280;52661;51.364;6.054;2023-02-03T05:47:55;102154.81;;;8.40;100.00
65880;BME280;52661;51.364;6.054;2023-02-03T05:50:21;102143.31;;;8.44;100.00
65880;BME280;52661;51.364;6.054;2023-02-03T05:52:47;102153.44;;;8.47;100.00
65880;BME280;52661;51.364;6.054;2023-02-03T05:55:12;102149.97;;;8.46;100.00
65880;BME280;52661;51.364;6.054;2023-02-03T05:57:37;102156.94;;;8.47;100.00
65880;BME280;52661;51.364;6.054;2023-02-03T06:00:03;102165.53;;;8.49;100.00
65880;BME280;52661;51.364;6.054;2023-02-03T06:02:30;102160.44;;;8.48;100.00
65880;BME280;52661;51.364;6.054;2023-02-03T06:04:55;102165.84;;;8.48;100.00
65880;BME280;52661;51.364;6.054;2023-02-03T06:07:21;102168.13;;;8.46;100.00
65880;BME280;52661;51.364;6.054;2023-02-03T06:09:46;102156.50;;;8.45;100.00
65880;BME280;52661;51.364;6.054;2023-02-03T06:12:11;102149.19;;;8.46;100.00
65880;BME280;52661;51.364;6.054;2023-02-03T06:14:36;102156.16;;;8.47;100.00
65880;BME280;52661;51.364;6.054;2023-02-03T06:17:02;102160.00;;;8.46;100.00
65880;BME280;52661;51.364;6.054;2023-02-03T06:19:27;102156.16;;;8.47;100.00
65880;BME280;52661;51.364;6.054;2023-02-03T06:21:52;102162.81;;;8.49;100.00
65880;BME280;52661;51.364;6.054;2023-02-03T06:24:18;102150.09;;;8.50;100.00
65880;BME280;52661;51.364;6.054;2023-02-03T06:26:43;102167.78;;;8.47;100.00
65880;BME280;52661;51.364;6.054;2023-02-03T06:29:08;102166.66;;;8.48;100.00
65880;BME280;52661;51.364;6.054;2023-02-03T06:31:34;102168.56;;;8.48;100.00
65880;BME280;52661;51.364;6.054;2023-02-03T06:33:59;102163.50;;;8.46;100.00
65880;BME280;52661;51.364;6.054;2023-02-03T06:36:26;102153.44;;;8.47;100.00
65880;BME280;52661;51.364;6.054;2023-02-03T06:38:52;102154.25;;;8.47;100.00
65880;BME280;52661;51.364;6.054;2023-02-03T06:41:17;102155.03;;;8.48;100.00
65880;BME280;52661;51.364;6.054;2023-02-03T06:43:42;102148.50;;;8.49;100.00
65880;BME280;52661;51.364;6.054;2023-02-03T06:46:08;102147.38;;;8.50;100.00
65880;BME280;52661;51.364;6.054;2023-02-03T06:48:33;102140.38;;;8.49;100.00
65880;BME280;52661;51.364;6.054;2023-02-03T06:50:58;102140.03;;;8.50;100.00
65880;BME280;52661;51.364;6.054;2023-02-03T06:53:24;102140.81;;;8.51;100.00
65880;BME280;52661;51.364;6.054;2023-02-03T06:55:49;102149.75;;;8.51;100.00
65880;BME280;52661;51.364;6.054;2023-02-03T06:58:15;102147.72;;;8.48;100.00
65880;BME280;52661;51.364;6.054;2023-02-03T07:00:40;102153.91;;;8.49;100.00
65880;BME280;52661;51.364;6.054;2023-02-03T07:03:05;102145.00;;;8.48;100.00
65880;BME280;52661;51.364;6.054;2023-02-03T07:05:31;102153.91;;;8.49;100.00
65880;BME280;52661;51.364;6.054;2023-02-03T07:07:56;102151.66;;;8.51;100.00
65880;BME280;52661;51.364;6.054;2023-02-03T07:10:21;102144.31;;;8.51;100.00
65880;BME280;52661;51.364;6.054;2023-02-03T07:12:47;102147.03;;;8.51;100.00
65880;BME280;52661;51.364;6.054;2023-02-03T07:15:12;102143.09;;;8.49;100.00
65880;BME280;52661;51.364;6.054;2023-02-03T07:17:38;102152.00;;;8.49;100.00
65880;BME280;52661;51.364;6.054;2023-02-03T07:20:03;102157.41;;;8.49;100.00
65880;BME280;52661;51.364;6.054;2023-02-03T07:22:29;102156.75;;;8.52;100.00
65880;BME280;52661;51.364;6.054;2023-02-03T07:24:54;102162.16;;;8.52;100.00
65880;BME280;52661;51.364;6.054;2023-02-03T07:27:20;102164.38;;;8.50;100.00
65880;BME280;52661;51.364;6.054;2023-02-03T07:29:45;102158.22;;;8.50;100.00
65880;BME280;52661;51.364;6.054;2023-02-03T07:32:10;102171.84;;;8.53;100.00
65880;BME280;52661;51.364;6.054;2023-02-03T07:34:36;102165.41;;;8.58;100.00
65880;BME280;52661;51.364;6.054;2023-02-03T07:37:01;102158.44;;;8.57;100.00
65880;BME280;52661;51.364;6.054;2023-02-03T07:39:26;102161.78;;;8.54;100.00
65880;BME280;52661;51.364;6.054;2023-02-03T07:41:52;102169.91;;;8.54;100.00
65880;BME280;52661;51.364;6.054;2023-02-03T07:44:17;102183.22;;;8.59;100.00
65880;BME280;52661;51.364;6.054;2023-02-03T07:46:42;102170.81;;;8.58;100.00
65880;BME280;52661;51.364;6.054;2023-02-03T07:49:10;102169.91;;;8.54;100.00
65880;BME280;52661;51.364;6.054;2023-02-03T07:51:36;102161.13;;;8.57;100.00
65880;BME280;52661;51.364;6.054;2023-02-03T07:54:02;102163.06;;;8.56;100.00
65880;BME280;52661;51.364;6.054;2023-02-03T07:56:27;102166.88;;;8.55;100.00
65880;BME280;52661;51.364;6.054;2023-02-03T07:58:54;102166.88;;;8.55;100.00
65880;BME280;52661;51.364;6.054;2023-02-03T08:01:21;102175.47;;;8.57;100.00
65880;BME280;52661;51.364;6.054;2023-02-03T08:03:47;102168.00;;;8.54;100.00
65880;BME280;52661;51.364;6.054;2023-02-03T08:06:12;102171.84;;;8.53;100.00
65880;BME280;52661;51.364;6.054;2023-02-03T08:08:37;102183.13;;;8.55;100.00
65880;BME280;52661;51.364;6.054;2023-02-03T08:11:03;102194.06;;;8.59;100.00
65880;BME280;52661;51.364;6.054;2023-02-03T08:13:28;102190.56;;;8.58;100.00
65880;BME280;52661;51.364;6.054;2023-02-03T08:15:53;102195.16;;;8.58;100.00
65880;BME280;52661;51.364;6.054;2023-02-03T08:18:19;102190.13;;;8.56;100.00
65880;BME280;52661;51.364;6.054;2023-02-03T08:20:46;102189.00;;;8.57;100.00
65880;BME280;52661;51.364;6.054;2023-02-03T08:23:12;102198.56;;;8.55;100.00
65880;BME280;52661;51.364;6.054;2023-02-03T08:25:37;102215.16;;;8.53;100.00
65880;BME280;52661;51.364;6.054;2023-02-03T08:28:02;102214.47;;;8.56;100.00
65880;BME280;52661;51.364;6.054;2023-02-03T08:30:28;102207.94;;;8.57;100.00
65880;BME280;52661;51.364;6.054;2023-02-03T08:32:53;102216.06;;;8.57;100.00
65880;BME280;52661;51.364;6.054;2023-02-03T08:35:18;102211.09;;;8.59;100.00
65880;BME280;52661;51.364;6.054;2023-02-03T08:37:44;102205.66;;;8.59;100.00
65880;BME280;52661;51.364;6.054;2023-02-03T08:40:10;102215.38;;;8.60;100.00
65880;BME280;52661;51.364;6.054;2023-02-03T08:42:36;102222.69;;;8.60;100.00
65880;BME280;52661;51.364;6.054;2023-02-03T08:45:02;102227.22;;;8.56;100.00
65880;BME280;52661;51.364;6.054;2023-02-03T08:47:27;102224.03;;;8.54;100.00
65880;BME280;52661;51.364;6.054;2023-02-03T08:49:53;102223.28;;;8.53;100.00
65880;BME280;52661;51.364;6.054;2023-02-03T08:52:18;102231.81;;;8.55;100.00
65880;BME280;52661;51.364;6.054;2023-02-03T08:54:43;102238.81;;;8.56;100.00
65880;BME280;52661;51.364;6.054;2023-02-03T08:57:09;102247.75;;;8.57;100.00
65880;BME280;52661;51.364;6.054;2023-02-03T08:59:37;102233.06;;;8.58;100.00
65880;BME280;52661;51.364;6.054;2023-02-03T09:02:04;102239.63;;;8.57;100.00
65880;BME280;52661;51.364;6.054;2023-02-03T09:04:29;102236.56;;;8.58;100.00
65880;BME280;52661;51.364;6.054;2023-02-03T09:06:58;102233.06;;;8.58;100.00
65880;BME280;52661;51.364;6.054;2023-02-03T09:09:23;102223.50;;;8.60;100.00
65880;BME280;52661;51.364;6.054;2023-02-03T09:11:51;102228.56;;;8.62;100.00
65880;BME280;52661;51.364;6.054;2023-02-03T09:14:16;102220.09;;;8.63;100.00
65880;BME280;52661;51.364;6.054;2023-02-03T09:16:41;102237.13;;;8.64;100.00
65880;BME280;52661;51.364;6.054;2023-02-03T09:19:07;102235.66;;;8.66;100.00
65880;BME280;52661;51.364;6.054;2023-02-03T09:21:32;102232.53;;;8.64;100.00
65880;BME280;52661;51.364;6.054;2023-02-03T09:24:02;102238.16;;;8.71;100.00
65880;BME280;52661;51.364;6.054;2023-02-03T09:26:27;102233.06;;;8.70;100.00
65880;BME280;52661;51.364;6.054;2023-02-03T09:28:53;102238.81;;;8.68;100.00
65880;BME280;52661;51.364;6.054;2023-02-03T09:31:18;102243.09;;;8.69;100.00
65880;BME280;52661;51.364;6.054;2023-02-03T09:33:45;102241.75;;;8.75;100.00
65880;BME280;52661;51.364;6.054;2023-02-03T09:36:10;102248.41;;;8.78;100.00
65880;BME280;52661;51.364;6.054;2023-02-03T09:38:36;102256.44;;;8.74;100.00
65880;BME280;52661;51.364;6.054;2023-02-03T09:43:34;102242.91;;;8.74;100.00
65880;BME280;52661;51.364;6.054;2023-02-03T09:46:06;102243.44;;;8.80;100.00
65880;BME280;52661;51.364;6.054;2023-02-03T09:48:36;102241.53;;;8.80;100.00
65880;BME280;52661;51.364;6.054;2023-02-03T09:51:07;102247.84;;;8.84;100.00
65880;BME280;52661;51.364;6.054;2023-02-03T09:53:45;102253.50;;;8.92;100.00
65880;BME280;52661;51.364;6.054;2023-02-03T09:56:22;102254.28;;;8.92;100.00
65880;BME280;52661;51.364;6.054;2023-02-03T09:58:50;102261.28;;;8.93;100.00
65880;BME280;52661;51.364;6.054;2023-02-03T10:01:15;102260.50;;;8.93;100.00
65880;BME280;52661;51.364;6.054;2023-02-03T10:04:09;102259.44;;;8.97;100.00
65880;BME280;52661;51.364;6.054;2023-02-03T10:06:44;102253.72;;;8.99;100.00
65880;BME280;52661;51.364;6.054;2023-02-03T10:22:26;102249.31;;;9.06;100.00
65880;BME280;52661;51.364;6.054;2023-02-03T10:24:58;102257.22;;;9.11;100.00
65880;BME280;52661;51.364;6.054;2023-02-03T10:27:24;102265.78;;;9.13;100.00
65880;BME280;52661;51.364;6.054;2023-02-03T10:29:55;102266.56;;;9.14;100.00
65880;BME280;52661;51.364;6.054;2023-02-03T10:32:23;102257.41;;;9.18;100.00
65880;BME280;52661;51.364;6.054;2023-02-03T10:34:50;102260.91;;;9.19;100.00
65880;BME280;52661;51.364;6.054;2023-02-03T10:37:36;102264.50;;;9.23;100.00
65880;BME280;52661;51.364;6.054;2023-02-03T10:40:11;102259.19;;;9.26;100.00
65880;BME280;52661;51.364;6.054;2023-02-03T10:42:37;102246.44;;;9.27;100.00
65880;BME280;52661;51.364;6.054;2023-02-03T10:45:21;102234.16;;;9.29;100.00
65880;BME280;52661;51.364;6.054;2023-02-03T10:47:50;102246.09;;;9.28;100.00
65880;BME280;52661;51.364;6.054;2023-02-03T10:50:20;102253.88;;;9.30;100.00
65880;BME280;52661;51.364;6.054;2023-02-03T10:52:46;102265.88;;;9.29;100.00
65880;BME280;52661;51.364;6.054;2023-02-03T10:57:49;102255.03;;;9.29;100.00
65880;BME280;52661;51.364;6.054;2023-02-03T11:00:21;102258.16;;;9.31;100.00
65880;BME280;52661;51.364;6.054;2023-02-03T11:02:55;102257.84;;;9.32;100.00
65880;BME280;52661;51.364;6.054;2023-02-03T11:05:22;102257.84;;;9.32;100.00
65880;BME280;52661;51.364;6.054;2023-02-03T11:07:52;102254.34;;;9.32;100.00
65880;BME280;52661;51.364;6.054;2023-02-03T11:10:34;102248.13;;;9.31;100.00
65880;BME280;52661;51.364;6.054;2023-02-03T11:13:21;102259.75;;;9.32;100.00
65880;BME280;52661;51.364;6.054;2023-02-03T11:15:51;102263.69;;;9.34;100.00
65880;BME280;52661;51.364;6.054;2023-02-03T11:18:42;102256.78;;;9.37;100.00
65880;BME280;52661;51.364;6.054;2023-02-03T11:21:17;102265.72;;;9.37;100.00
65880;BME280;52661;51.364;6.054;2023-02-03T11:23:54;102250.72;;;9.40;100.00
65880;BME280;52661;51.364;6.054;2023-02-03T11:26:24;102264.38;;;9.44;100.00
65880;BME280;52661;51.364;6.054;2023-02-03T11:28:53;102263.69;;;9.47;100.00
65880;BME280;52661;51.364;6.054;2023-02-03T11:31:24;102269.91;;;9.47;100.00
65880;BME280;52661;51.364;6.054;2023-02-03T11:33:56;102260.97;;;9.47;100.00
65880;BME280;52661;51.364;6.054;2023-02-03T11:36:25;102267.97;;;9.48;100.00
65880;BME280;52661;51.364;6.054;2023-02-03T11:38:51;102270.31;;;9.49;100.00
65880;BME280;52661;51.364;6.054;2023-02-03T11:41:19;102259.06;;;9.47;100.00
65880;BME280;52661;51.364;6.054;2023-02-03T11:43:46;102268.75;;;9.48;100.00
65880;BME280;52661;51.364;6.054;2023-02-03T11:46:13;102261.41;;;9.49;100.00
65880;BME280;52661;51.364;6.054;2023-02-03T11:54:23;102274.53;;;9.47;100.00
65880;BME280;52661;51.364;6.054;2023-02-03T12:02:18;102271.13;;;9.50;100.00
65880;BME280;52661;51.364;6.054;2023-02-03T12:13:11;102261.59;;;9.56;100.00
65880;BME280;52661;51.364;6.054;2023-02-03T12:24:08;102275.25;;;9.59;100.00
65880;BME280;52661;51.364;6.054;2023-02-03T12:29:50;102268.03;;;9.63;100.00
65880;BME280;52661;51.364;6.054;2023-02-03T12:35:00;102274.25;;;9.64;100.00
65880;BME280;52661;51.364;6.054;2023-02-03T12:37:41;102281.56;;;9.63;100.00
65880;BME280;52661;51.364;6.054;2023-02-03T12:40:38;102288.22;;;9.66;100.00
65880;BME280;52661;51.364;6.054;2023-02-03T12:45:35;102299.06;;;9.66;100.00
65880;BME280;52661;51.364;6.054;2023-02-03T12:48:08;102294.81;;;9.65;100.00
65880;BME280;52661;51.364;6.054;2023-02-03T12:51:02;102303.38;;;9.67;100.00
65880;BME280;52661;51.364;6.054;2023-02-03T12:53:36;102320.44;;;9.67;100.00
65880;BME280;52661;51.364;6.054;2023-02-03T12:56:08;102315.00;;;9.67;100.00
65880;BME280;52661;51.364;6.054;2023-02-03T12:58:56;102296.91;;;9.71;100.00
65880;BME280;52661;51.364;6.054;2023-02-03T13:01:30;102302.44;;;9.75;100.00
65880;BME280;52661;51.364;6.054;2023-02-03T13:04:18;102297.56;;;9.80;100.00
65880;BME280;52661;51.364;6.054;2023-02-03T13:06:53;102295.31;;;9.82;100.00
65880;BME280;52661;51.364;6.054;2023-02-03T13:12:02;102292.94;;;9.81;100.00
65880;BME280;52661;51.364;6.054;2023-02-03T13:14:35;102291.38;;;9.80;100.00
65880;BME280;52661;51.364;6.054;2023-02-03T13:17:17;102297.56;;;9.80;100.00
65880;BME280;52661;51.364;6.054;2023-02-03T13:19:49;102301.53;;;9.83;100.00
65880;BME280;52661;51.364;6.054;2023-02-03T13:22:16;102310.00;;;9.81;100.00
65880;BME280;52661;51.364;6.054;2023-02-03T13:24:47;102310.78;;;9.82;100.00
65880;BME280;52661;51.364;6.054;2023-02-03T13:41:03;102285.28;;;9.99;100.00
65880;BME280;52661;51.364;6.054;2023-02-03T13:43:34;102290.81;;;10.02;100.00
65880;BME280;52661;51.364;6.054;2023-02-03T13:46:00;102299.75;;;10.03;100.00
65880;BME280;52661;51.364;6.054;2023-02-03T13:48:29;102297.47;;;10.05;100.00
65880;BME280;52661;51.364;6.054;2023-02-03T13:51:14;102281.22;;;10.05;100.00
65880;BME280;52661;51.364;6.054;2023-02-03T13:53:43;102280.50;;;10.08;100.00
65880;BME280;52661;51.364;6.054;2023-02-03T13:56:35;102294.16;;;10.11;100.00
65880;BME280;52661;51.364;6.054;2023-02-03T14:22:53;102297.22;;;10.10;100.00
65880;BME280;52661;51.364;6.054;2023-02-03T14:25:20;102295.28;;;10.10;100.00
65880;BME280;52661;51.364;6.054;2023-02-03T14:27:47;102289.88;;;10.10;100.00
65880;BME280;52661;51.364;6.054;2023-02-03T14:30:22;102301.97;;;10.13;100.00
65880;BME280;52661;51.364;6.054;2023-02-03T14:32:50;102294.59;;;10.13;100.00
65880;BME280;52661;51.364;6.054;2023-02-03T14:35:19;102306.81;;;10.19;100.00
65880;BME280;52661;51.364;6.054;2023-02-03T14:37:53;102298.69;;;10.19;100.00
65880;BME280;52661;51.364;6.054;2023-02-03T14:40:41;102304.53;;;10.21;100.00
65880;BME280;52661;51.364;6.054;2023-02-03T14:54:40;102310.66;;;10.18;100.00
65880;BME280;52661;51.364;6.054;2023-02-03T15:00:00;102318.59;;;10.11;100.00
65880;BME280;52661;51.364;6.054;2023-02-03T15:02:29;102344.81;;;10.07;100.00
65880;BME280;52661;51.364;6.054;2023-02-03T15:10:12;102351.59;;;9.73;100.00
65880;BME280;52661;51.364;6.054;2023-02-03T15:12:53;102356.69;;;9.63;100.00
65880;BME280;52661;51.364;6.054;2023-02-03T15:17:46;102380.22;;;9.34;100.00
65880;BME280;52661;51.364;6.054;2023-02-03T15:22:51;102378.06;;;9.16;100.00
65880;BME280;52661;51.364;6.054;2023-02-03T15:25:18;102351.22;;;9.11;100.00